Aktuální počasí v Tlučné 

Teplota 0.1 °C
Minimální teplota 0.1 °C Maximální teplota 0.8 °C
Teplota rosného bodu -1.7 °C Pocitová teplota 0.1 °C
Tlak 1004.6 hPa
Směr a rychlost větru  0 m/s
» 0 m/s
vlhkost 86.8 %
Teplota 0.0  mm/h
SlunceUV0.664 dnes zítra
↑ 07:31 ↑ 07:33
↓ 16:15 ↓ 16:14
   
Měsíc dnes zítra
↑ 11:21 ↑ 11:59
↓ 20:26 ↓ 21:24
   
Historie naměřených hodnot
 
  LKLN Metar
  LKLN Metar
2017/11/22 23:55
LKLN 222355Z AUTO VRB01KT 7000 VV002 M00/M00 Q1012
Rychlost a směr větru Proměnlivý
1.9 km/h
--
7 km
22965.9 ft
Svislá viditelnost (61 m)
Teplota 0 °C
Rosný bod 0°C
 
Tlak 1012 hPa
759.1 mmHg
 
  YR.no meteogram
  YR.no meteogram
Meteogram YR.no
  Kalendář alergenů
  Kalendář alergenů
kalendar
  IN-Pocasi.cz
  IN-Pocasi.cz
In-Pocasi logo




  PocasiIdnes     CHMI     MeteoPress     Radar     Radar2  


  Valid XHTML 1.0 Transitional  


Provozni a servisni denik

Popis

ČKD / FAQ